sensor_id;sensor_type;location;lat;lon;timestamp;temperature;humidity
33139;DHT22;19501;50.948;5.316;2024-02-15T00:02:09;12.80;99.90
33139;DHT22;19501;50.948;5.316;2024-02-15T00:04:36;12.80;99.90
33139;DHT22;19501;50.948;5.316;2024-02-15T00:07:04;12.80;99.90
33139;DHT22;19501;50.948;5.316;2024-02-15T00:09:30;12.90;99.90
33139;DHT22;19501;50.948;5.316;2024-02-15T00:11:56;12.80;99.90
33139;DHT22;19501;50.948;5.316;2024-02-15T00:14:21;12.80;99.90
33139;DHT22;19501;50.948;5.316;2024-02-15T00:16:47;12.80;99.90
33139;DHT22;19501;50.948;5.316;2024-02-15T00:19:15;12.70;99.90
33139;DHT22;19501;50.948;5.316;2024-02-15T00:21:48;12.70;99.90
33139;DHT22;19501;50.948;5.316;2024-02-15T00:24:14;12.80;99.90
33139;DHT22;19501;50.948;5.316;2024-02-15T00:26:42;12.70;99.90
33139;DHT22;19501;50.948;5.316;2024-02-15T00:29:08;12.70;99.90
33139;DHT22;19501;50.948;5.316;2024-02-15T00:31:34;12.70;99.90
33139;DHT22;19501;50.948;5.316;2024-02-15T00:34:01;12.70;99.90
33139;DHT22;19501;50.948;5.316;2024-02-15T00:36:28;12.70;99.90
33139;DHT22;19501;50.948;5.316;2024-02-15T00:38:55;12.80;99.90
33139;DHT22;19501;50.948;5.316;2024-02-15T00:41:23;12.80;99.90
33139;DHT22;19501;50.948;5.316;2024-02-15T00:43:48;12.80;99.90
33139;DHT22;19501;50.948;5.316;2024-02-15T00:46:16;12.90;99.90
33139;DHT22;19501;50.948;5.316;2024-02-15T00:48:42;12.90;99.90
33139;DHT22;19501;50.948;5.316;2024-02-15T00:51:08;12.90;99.90
33139;DHT22;19501;50.948;5.316;2024-02-15T00:53:33;12.80;99.90
33139;DHT22;19501;50.948;5.316;2024-02-15T00:55:59;12.80;99.90
33139;DHT22;19501;50.948;5.316;2024-02-15T00:58:25;12.80;99.90
33139;DHT22;19501;50.948;5.316;2024-02-15T01:00:52;12.80;99.90
33139;DHT22;19501;50.948;5.316;2024-02-15T01:03:19;12.90;99.90
33139;DHT22;19501;50.948;5.316;2024-02-15T01:05:45;12.90;99.90
33139;DHT22;19501;50.948;5.316;2024-02-15T01:08:10;12.80;99.90
33139;DHT22;19501;50.948;5.316;2024-02-15T01:10:37;12.90;99.90
33139;DHT22;19501;50.948;5.316;2024-02-15T01:13:02;12.90;99.90
33139;DHT22;19501;50.948;5.316;2024-02-15T01:15:28;12.80;99.90
33139;DHT22;19501;50.948;5.316;2024-02-15T01:17:55;12.80;99.90
33139;DHT22;19501;50.948;5.316;2024-02-15T01:20:20;12.80;99.90
33139;DHT22;19501;50.948;5.316;2024-02-15T01:22:46;12.80;99.90
33139;DHT22;19501;50.948;5.316;2024-02-15T01:25:12;12.80;99.90
33139;DHT22;19501;50.948;5.316;2024-02-15T01:27:41;12.90;99.90
33139;DHT22;19501;50.948;5.316;2024-02-15T01:30:10;12.80;99.90
33139;DHT22;19501;50.948;5.316;2024-02-15T01:32:35;12.80;99.90
33139;DHT22;19501;50.948;5.316;2024-02-15T01:35:02;12.90;99.90
33139;DHT22;19501;50.948;5.316;2024-02-15T01:37:28;12.90;99.90
33139;DHT22;19501;50.948;5.316;2024-02-15T01:39:53;12.90;99.90
33139;DHT22;19501;50.948;5.316;2024-02-15T01:42:19;12.90;99.90
33139;DHT22;19501;50.948;5.316;2024-02-15T01:44:47;12.90;99.90
33139;DHT22;19501;50.948;5.316;2024-02-15T01:47:17;13.00;99.90
33139;DHT22;19501;50.948;5.316;2024-02-15T01:49:44;12.90;99.90
33139;DHT22;19501;50.948;5.316;2024-02-15T01:52:11;12.90;99.90
33139;DHT22;19501;50.948;5.316;2024-02-15T01:54:37;12.90;99.90
33139;DHT22;19501;50.948;5.316;2024-02-15T01:57:04;12.90;99.90
33139;DHT22;19501;50.948;5.316;2024-02-15T01:59:30;13.00;99.90
33139;DHT22;19501;50.948;5.316;2024-02-15T02:01:56;12.90;99.90
33139;DHT22;19501;50.948;5.316;2024-02-15T02:04:22;13.00;99.90
33139;DHT22;19501;50.948;5.316;2024-02-15T02:06:48;13.00;99.90
33139;DHT22;19501;50.948;5.316;2024-02-15T02:09:14;13.00;99.90
33139;DHT22;19501;50.948;5.316;2024-02-15T02:11:41;13.00;99.90
33139;DHT22;19501;50.948;5.316;2024-02-15T02:14:06;13.00;99.90
33139;DHT22;19501;50.948;5.316;2024-02-15T02:16:32;13.00;99.90
33139;DHT22;19501;50.948;5.316;2024-02-15T02:18:58;12.90;99.90
33139;DHT22;19501;50.948;5.316;2024-02-15T02:21:28;12.90;99.90
33139;DHT22;19501;50.948;5.316;2024-02-15T02:23:56;12.90;99.90
33139;DHT22;19501;50.948;5.316;2024-02-15T02:26:24;13.10;99.90
33139;DHT22;19501;50.948;5.316;2024-02-15T02:28:50;13.00;99.90
33139;DHT22;19501;50.948;5.316;2024-02-15T02:31:19;13.00;99.90
33139;DHT22;19501;50.948;5.316;2024-02-15T02:33:51;13.00;99.90
33139;DHT22;19501;50.948;5.316;2024-02-15T02:36:20;13.00;99.90
33139;DHT22;19501;50.948;5.316;2024-02-15T02:38:47;13.00;99.90
33139;DHT22;19501;50.948;5.316;2024-02-15T02:41:15;13.10;99.90
33139;DHT22;19501;50.948;5.316;2024-02-15T02:43:41;13.20;99.90
33139;DHT22;19501;50.948;5.316;2024-02-15T02:46:10;13.20;99.90
33139;DHT22;19501;50.948;5.316;2024-02-15T02:48:36;13.20;99.90
33139;DHT22;19501;50.948;5.316;2024-02-15T02:51:02;13.10;99.90
33139;DHT22;19501;50.948;5.316;2024-02-15T02:53:28;13.10;99.90
33139;DHT22;19501;50.948;5.316;2024-02-15T02:55:55;13.10;99.90
33139;DHT22;19501;50.948;5.316;2024-02-15T02:58:22;13.20;99.90
33139;DHT22;19501;50.948;5.316;2024-02-15T03:00:51;13.20;99.90
33139;DHT22;19501;50.948;5.316;2024-02-15T03:03:17;13.20;99.90
33139;DHT22;19501;50.948;5.316;2024-02-15T03:05:50;13.30;99.90
33139;DHT22;19501;50.948;5.316;2024-02-15T03:08:16;13.30;99.90
33139;DHT22;19501;50.948;5.316;2024-02-15T03:10:43;13.30;99.90
33139;DHT22;19501;50.948;5.316;2024-02-15T03:13:10;13.30;99.90
33139;DHT22;19501;50.948;5.316;2024-02-15T03:15:37;13.30;99.90
33139;DHT22;19501;50.948;5.316;2024-02-15T03:18:03;13.20;99.90
33139;DHT22;19501;50.948;5.316;2024-02-15T03:20:32;13.10;99.90
33139;DHT22;19501;50.948;5.316;2024-02-15T03:23:01;13.00;99.90
33139;DHT22;19501;50.948;5.316;2024-02-15T03:25:28;13.00;99.90
33139;DHT22;19501;50.948;5.316;2024-02-15T03:27:56;13.00;99.90
33139;DHT22;19501;50.948;5.316;2024-02-15T03:30:24;13.00;99.90
33139;DHT22;19501;50.948;5.316;2024-02-15T03:32:50;13.10;99.90
33139;DHT22;19501;50.948;5.316;2024-02-15T03:35:21;13.00;99.90
33139;DHT22;19501;50.948;5.316;2024-02-15T03:37:48;13.00;99.90
33139;DHT22;19501;50.948;5.316;2024-02-15T03:40:20;13.10;99.90
33139;DHT22;19501;50.948;5.316;2024-02-15T03:42:46;13.00;99.90
33139;DHT22;19501;50.948;5.316;2024-02-15T03:45:12;13.10;99.90
33139;DHT22;19501;50.948;5.316;2024-02-15T03:47:38;13.10;99.90
33139;DHT22;19501;50.948;5.316;2024-02-15T03:50:08;13.10;99.90
33139;DHT22;19501;50.948;5.316;2024-02-15T03:52:37;13.00;99.90
33139;DHT22;19501;50.948;5.316;2024-02-15T03:55:04;13.00;99.90
33139;DHT22;19501;50.948;5.316;2024-02-15T03:57:30;12.90;99.90
33139;DHT22;19501;50.948;5.316;2024-02-15T03:59:55;12.80;99.90
33139;DHT22;19501;50.948;5.316;2024-02-15T04:02:25;12.80;99.90
33139;DHT22;19501;50.948;5.316;2024-02-15T04:04:56;12.70;99.90
33139;DHT22;19501;50.948;5.316;2024-02-15T04:07:22;12.50;99.90
33139;DHT22;19501;50.948;5.316;2024-02-15T04:09:49;12.40;99.90
33139;DHT22;19501;50.948;5.316;2024-02-15T04:12:15;12.40;99.90
33139;DHT22;19501;50.948;5.316;2024-02-15T04:14:43;12.40;99.90
33139;DHT22;19501;50.948;5.316;2024-02-15T04:17:13;12.40;99.90
33139;DHT22;19501;50.948;5.316;2024-02-15T04:19:41;12.40;99.90
33139;DHT22;19501;50.948;5.316;2024-02-15T04:22:06;12.40;99.90
33139;DHT22;19501;50.948;5.316;2024-02-15T04:24:36;12.40;99.90
33139;DHT22;19501;50.948;5.316;2024-02-15T04:27:06;12.40;99.90
33139;DHT22;19501;50.948;5.316;2024-02-15T04:29:34;12.50;99.90
33139;DHT22;19501;50.948;5.316;2024-02-15T04:32:00;12.40;99.90
33139;DHT22;19501;50.948;5.316;2024-02-15T04:34:25;12.40;99.90
33139;DHT22;19501;50.948;5.316;2024-02-15T04:36:51;12.40;99.90
33139;DHT22;19501;50.948;5.316;2024-02-15T04:39:21;12.50;99.90
33139;DHT22;19501;50.948;5.316;2024-02-15T04:41:53;12.60;99.90
33139;DHT22;19501;50.948;5.316;2024-02-15T04:44:19;12.60;99.90
33139;DHT22;19501;50.948;5.316;2024-02-15T04:46:52;12.50;99.90
33139;DHT22;19501;50.948;5.316;2024-02-15T04:49:18;12.40;99.90
33139;DHT22;19501;50.948;5.316;2024-02-15T04:51:44;12.50;99.90
33139;DHT22;19501;50.948;5.316;2024-02-15T04:54:10;12.50;99.90
33139;DHT22;19501;50.948;5.316;2024-02-15T04:56:39;12.50;99.90
33139;DHT22;19501;50.948;5.316;2024-02-15T04:59:09;12.50;99.90
33139;DHT22;19501;50.948;5.316;2024-02-15T05:01:37;12.50;99.90
33139;DHT22;19501;50.948;5.316;2024-02-15T05:04:03;12.40;99.90
33139;DHT22;19501;50.948;5.316;2024-02-15T05:06:33;12.40;99.90
33139;DHT22;19501;50.948;5.316;2024-02-15T05:08:58;12.40;99.90
33139;DHT22;19501;50.948;5.316;2024-02-15T05:11:26;12.40;99.90
33139;DHT22;19501;50.948;5.316;2024-02-15T05:13:54;12.40;99.90
33139;DHT22;19501;50.948;5.316;2024-02-15T05:16:19;12.40;99.90
33139;DHT22;19501;50.948;5.316;2024-02-15T05:18:45;12.40;99.90
33139;DHT22;19501;50.948;5.316;2024-02-15T05:21:11;12.40;99.90
33139;DHT22;19501;50.948;5.316;2024-02-15T05:23:38;12.40;99.90
33139;DHT22;19501;50.948;5.316;2024-02-15T05:26:06;12.40;99.90
33139;DHT22;19501;50.948;5.316;2024-02-15T05:28:31;12.40;99.90
33139;DHT22;19501;50.948;5.316;2024-02-15T05:31:18;12.50;99.90
33139;DHT22;19501;50.948;5.316;2024-02-15T05:33:46;12.60;99.90
33139;DHT22;19501;50.948;5.316;2024-02-15T05:36:19;12.60;99.90
33139;DHT22;19501;50.948;5.316;2024-02-15T05:38:47;12.70;99.90
33139;DHT22;19501;50.948;5.316;2024-02-15T05:41:14;12.70;99.90
33139;DHT22;19501;50.948;5.316;2024-02-15T05:43:40;12.70;99.90
33139;DHT22;19501;50.948;5.316;2024-02-15T05:46:07;12.60;99.90
33139;DHT22;19501;50.948;5.316;2024-02-15T05:48:34;12.70;99.90
33139;DHT22;19501;50.948;5.316;2024-02-15T05:51:01;12.60;99.90
33139;DHT22;19501;50.948;5.316;2024-02-15T05:53:29;12.70;99.90
33139;DHT22;19501;50.948;5.316;2024-02-15T05:55:56;12.80;99.90
33139;DHT22;19501;50.948;5.316;2024-02-15T05:58:23;12.80;99.90
33139;DHT22;19501;50.948;5.316;2024-02-15T06:00:49;13.00;99.90
33139;DHT22;19501;50.948;5.316;2024-02-15T06:03:18;12.70;99.90
33139;DHT22;19501;50.948;5.316;2024-02-15T06:05:44;13.00;99.90
33139;DHT22;19501;50.948;5.316;2024-02-15T06:08:11;13.00;99.90
33139;DHT22;19501;50.948;5.316;2024-02-15T06:10:39;13.00;99.90
33139;DHT22;19501;50.948;5.316;2024-02-15T06:13:06;13.10;99.90
33139;DHT22;19501;50.948;5.316;2024-02-15T06:15:34;13.20;99.90
33139;DHT22;19501;50.948;5.316;2024-02-15T06:18:00;13.20;99.90
33139;DHT22;19501;50.948;5.316;2024-02-15T06:20:28;13.20;99.90
33139;DHT22;19501;50.948;5.316;2024-02-15T06:22:55;13.20;99.90
33139;DHT22;19501;50.948;5.316;2024-02-15T06:25:21;13.20;99.90
33139;DHT22;19501;50.948;5.316;2024-02-15T06:27:47;13.20;99.90
33139;DHT22;19501;50.948;5.316;2024-02-15T06:30:14;13.20;99.90
33139;DHT22;19501;50.948;5.316;2024-02-15T06:32:59;13.10;99.90
33139;DHT22;19501;50.948;5.316;2024-02-15T06:35:43;13.10;99.90
33139;DHT22;19501;50.948;5.316;2024-02-15T06:38:27;13.20;99.90
33139;DHT22;19501;50.948;5.316;2024-02-15T06:41:12;13.20;99.90
33139;DHT22;19501;50.948;5.316;2024-02-15T06:43:40;13.10;99.90
33139;DHT22;19501;50.948;5.316;2024-02-15T06:46:06;13.10;99.90
33139;DHT22;19501;50.948;5.316;2024-02-15T06:48:33;13.10;99.90
33139;DHT22;19501;50.948;5.316;2024-02-15T06:50:59;13.10;99.90
33139;DHT22;19501;50.948;5.316;2024-02-15T06:53:24;13.10;99.90
33139;DHT22;19501;50.948;5.316;2024-02-15T06:55:50;13.00;99.90
33139;DHT22;19501;50.948;5.316;2024-02-15T06:58:18;12.90;99.90
33139;DHT22;19501;50.948;5.316;2024-02-15T07:00:45;12.80;99.90
33139;DHT22;19501;50.948;5.316;2024-02-15T07:03:11;12.80;99.90
33139;DHT22;19501;50.948;5.316;2024-02-15T07:05:37;12.70;99.90
33139;DHT22;19501;50.948;5.316;2024-02-15T07:08:09;12.60;99.90
33139;DHT22;19501;50.948;5.316;2024-02-15T07:10:40;12.60;99.90
33139;DHT22;19501;50.948;5.316;2024-02-15T07:13:06;12.50;99.90
33139;DHT22;19501;50.948;5.316;2024-02-15T07:15:33;12.30;99.90
33139;DHT22;19501;50.948;5.316;2024-02-15T07:18:04;12.40;99.90
33139;DHT22;19501;50.948;5.316;2024-02-15T07:20:34;12.30;99.90
33139;DHT22;19501;50.948;5.316;2024-02-15T07:23:00;12.30;99.90
33139;DHT22;19501;50.948;5.316;2024-02-15T07:25:26;12.30;99.90
33139;DHT22;19501;50.948;5.316;2024-02-15T07:27:51;12.40;99.90
33139;DHT22;19501;50.948;5.316;2024-02-15T07:30:18;12.40;99.90
33139;DHT22;19501;50.948;5.316;2024-02-15T07:32:45;12.50;99.90
33139;DHT22;19501;50.948;5.316;2024-02-15T07:35:11;12.40;99.90
33139;DHT22;19501;50.948;5.316;2024-02-15T07:37:39;12.40;99.90
33139;DHT22;19501;50.948;5.316;2024-02-15T07:40:05;12.50;99.90
33139;DHT22;19501;50.948;5.316;2024-02-15T07:42:33;12.50;99.90
33139;DHT22;19501;50.948;5.316;2024-02-15T07:45:00;12.50;99.90
33139;DHT22;19501;50.948;5.316;2024-02-15T07:47:26;12.50;99.90
33139;DHT22;19501;50.948;5.316;2024-02-15T07:49:52;12.60;99.90
33139;DHT22;19501;50.948;5.316;2024-02-15T07:52:18;12.70;99.90
33139;DHT22;19501;50.948;5.316;2024-02-15T07:54:44;12.70;99.90
33139;DHT22;19501;50.948;5.316;2024-02-15T07:57:10;12.80;99.90
33139;DHT22;19501;50.948;5.316;2024-02-15T07:59:36;12.80;99.90
33139;DHT22;19501;50.948;5.316;2024-02-15T08:02:04;12.90;99.90
33139;DHT22;19501;50.948;5.316;2024-02-15T08:04:30;12.90;99.90
33139;DHT22;19501;50.948;5.316;2024-02-15T08:06:56;12.90;99.90
33139;DHT22;19501;50.948;5.316;2024-02-15T08:09:22;12.90;99.90
33139;DHT22;19501;50.948;5.316;2024-02-15T08:11:50;12.90;99.90
33139;DHT22;19501;50.948;5.316;2024-02-15T08:14:16;12.90;99.90
33139;DHT22;19501;50.948;5.316;2024-02-15T08:16:42;13.00;99.90
33139;DHT22;19501;50.948;5.316;2024-02-15T08:19:07;13.00;99.90
33139;DHT22;19501;50.948;5.316;2024-02-15T08:21:34;13.00;99.90
33139;DHT22;19501;50.948;5.316;2024-02-15T08:24:02;13.20;99.90
33139;DHT22;19501;50.948;5.316;2024-02-15T08:26:40;13.20;99.90
33139;DHT22;19501;50.948;5.316;2024-02-15T08:29:09;13.30;99.90
33139;DHT22;19501;50.948;5.316;2024-02-15T08:31:35;13.30;99.90
33139;DHT22;19501;50.948;5.316;2024-02-15T08:34:02;13.30;99.90
33139;DHT22;19501;50.948;5.316;2024-02-15T08:36:29;13.50;99.90
33139;DHT22;19501;50.948;5.316;2024-02-15T08:38:56;13.40;99.90
33139;DHT22;19501;50.948;5.316;2024-02-15T08:41:21;13.40;99.90
33139;DHT22;19501;50.948;5.316;2024-02-15T08:43:52;13.40;99.90
33139;DHT22;19501;50.948;5.316;2024-02-15T08:46:18;13.40;99.90
33139;DHT22;19501;50.948;5.316;2024-02-15T08:48:45;13.50;99.90
33139;DHT22;19501;50.948;5.316;2024-02-15T08:51:13;13.50;99.90
33139;DHT22;19501;50.948;5.316;2024-02-15T08:53:39;13.50;99.90
33139;DHT22;19501;50.948;5.316;2024-02-15T08:56:05;13.60;99.90
33139;DHT22;19501;50.948;5.316;2024-02-15T08:58:31;13.60;99.90
33139;DHT22;19501;50.948;5.316;2024-02-15T09:00:58;13.70;99.90
33139;DHT22;19501;50.948;5.316;2024-02-15T09:03:24;13.70;99.90
33139;DHT22;19501;50.948;5.316;2024-02-15T09:05:49;13.60;99.90
33139;DHT22;19501;50.948;5.316;2024-02-15T09:08:15;13.80;99.90
33139;DHT22;19501;50.948;5.316;2024-02-15T09:10:41;13.90;99.90
33139;DHT22;19501;50.948;5.316;2024-02-15T09:13:08;14.00;99.90
33139;DHT22;19501;50.948;5.316;2024-02-15T09:15:34;14.10;99.90
33139;DHT22;19501;50.948;5.316;2024-02-15T09:18:00;14.00;99.90
33139;DHT22;19501;50.948;5.316;2024-02-15T09:20:26;14.10;99.90
33139;DHT22;19501;50.948;5.316;2024-02-15T09:22:54;14.30;99.90
33139;DHT22;19501;50.948;5.316;2024-02-15T09:25:23;14.20;99.90
33139;DHT22;19501;50.948;5.316;2024-02-15T09:27:49;14.30;99.90
33139;DHT22;19501;50.948;5.316;2024-02-15T09:30:17;14.30;99.90
33139;DHT22;19501;50.948;5.316;2024-02-15T09:32:44;14.30;99.90
33139;DHT22;19501;50.948;5.316;2024-02-15T09:35:11;14.40;99.90
33139;DHT22;19501;50.948;5.316;2024-02-15T09:37:46;14.50;99.90
33139;DHT22;19501;50.948;5.316;2024-02-15T09:40:17;14.70;99.90
33139;DHT22;19501;50.948;5.316;2024-02-15T09:42:44;14.70;99.90
33139;DHT22;19501;50.948;5.316;2024-02-15T09:45:12;14.80;99.90
33139;DHT22;19501;50.948;5.316;2024-02-15T09:47:41;14.90;99.90
33139;DHT22;19501;50.948;5.316;2024-02-15T09:50:14;14.70;99.90
33139;DHT22;19501;50.948;5.316;2024-02-15T09:52:50;14.70;99.90
33139;DHT22;19501;50.948;5.316;2024-02-15T09:55:17;14.80;99.90
33139;DHT22;19501;50.948;5.316;2024-02-15T09:57:49;14.90;99.90
33139;DHT22;19501;50.948;5.316;2024-02-15T10:00:17;15.00;99.90
33139;DHT22;19501;50.948;5.316;2024-02-15T10:02:53;15.20;99.90
33139;DHT22;19501;50.948;5.316;2024-02-15T10:05:18;15.30;99.90
33139;DHT22;19501;50.948;5.316;2024-02-15T10:07:45;15.20;99.90
33139;DHT22;19501;50.948;5.316;2024-02-15T10:10:19;15.20;99.90
33139;DHT22;19501;50.948;5.316;2024-02-15T10:12:49;15.40;99.90
33139;DHT22;19501;50.948;5.316;2024-02-15T10:18:04;15.60;99.90
33139;DHT22;19501;50.948;5.316;2024-02-15T10:20:31;15.70;99.90
33139;DHT22;19501;50.948;5.316;2024-02-15T10:25:28;15.70;99.90
33139;DHT22;19501;50.948;5.316;2024-02-15T10:28:20;15.70;99.90
33139;DHT22;19501;50.948;5.316;2024-02-15T10:30:48;15.70;99.90
33139;DHT22;19501;50.948;5.316;2024-02-15T10:33:34;15.80;99.90
33139;DHT22;19501;50.948;5.316;2024-02-15T10:36:08;15.90;99.90
33139;DHT22;19501;50.948;5.316;2024-02-15T10:38:34;15.90;99.90
33139;DHT22;19501;50.948;5.316;2024-02-15T10:41:05;16.00;99.90
33139;DHT22;19501;50.948;5.316;2024-02-15T10:43:34;16.00;99.90
33139;DHT22;19501;50.948;5.316;2024-02-15T10:46:00;16.10;99.90
33139;DHT22;19501;50.948;5.316;2024-02-15T10:48:26;16.20;99.90
33139;DHT22;19501;50.948;5.316;2024-02-15T10:50:56;16.40;99.90
33139;DHT22;19501;50.948;5.316;2024-02-15T10:53:27;16.40;99.90
33139;DHT22;19501;50.948;5.316;2024-02-15T10:56:08;16.20;99.90
33139;DHT22;19501;50.948;5.316;2024-02-15T10:58:47;16.50;99.90
33139;DHT22;19501;50.948;5.316;2024-02-15T11:01:17;16.60;99.90
33139;DHT22;19501;50.948;5.316;2024-02-15T11:03:59;16.50;99.90
33139;DHT22;19501;50.948;5.316;2024-02-15T11:06:26;16.70;99.90
33139;DHT22;19501;50.948;5.316;2024-02-15T11:08:53;16.70;99.90
33139;DHT22;19501;50.948;5.316;2024-02-15T11:11:19;16.70;99.90
33139;DHT22;19501;50.948;5.316;2024-02-15T11:13:46;16.70;99.90
33139;DHT22;19501;50.948;5.316;2024-02-15T11:16:42;16.70;99.90
33139;DHT22;19501;50.948;5.316;2024-02-15T11:22:14;16.80;99.90
33139;DHT22;19501;50.948;5.316;2024-02-15T11:24:50;16.90;99.90
33139;DHT22;19501;50.948;5.316;2024-02-15T11:27:27;17.10;99.90
33139;DHT22;19501;50.948;5.316;2024-02-15T11:35:14;17.40;99.90
33139;DHT22;19501;50.948;5.316;2024-02-15T11:40:25;17.60;99.90
33139;DHT22;19501;50.948;5.316;2024-02-15T11:42:57;17.50;99.90
33139;DHT22;19501;50.948;5.316;2024-02-15T11:45:28;17.50;99.90
33139;DHT22;19501;50.948;5.316;2024-02-15T11:47:58;17.50;99.90
33139;DHT22;19501;50.948;5.316;2024-02-15T11:50:24;17.20;99.90
33139;DHT22;19501;50.948;5.316;2024-02-15T11:52:51;17.40;99.90
33139;DHT22;19501;50.948;5.316;2024-02-15T11:55:21;17.40;99.90
33139;DHT22;19501;50.948;5.316;2024-02-15T11:57:57;17.30;99.90
33139;DHT22;19501;50.948;5.316;2024-02-15T12:00:49;17.40;99.90
33139;DHT22;19501;50.948;5.316;2024-02-15T12:03:35;17.60;99.90
33139;DHT22;19501;50.948;5.316;2024-02-15T12:06:21;17.40;99.90
33139;DHT22;19501;50.948;5.316;2024-02-15T12:09:09;17.40;99.90
33139;DHT22;19501;50.948;5.316;2024-02-15T12:11:59;17.40;99.90
33139;DHT22;19501;50.948;5.316;2024-02-15T12:14:44;17.30;99.90
33139;DHT22;19501;50.948;5.316;2024-02-15T12:17:28;17.60;99.90
33139;DHT22;19501;50.948;5.316;2024-02-15T12:20:12;17.60;99.90
33139;DHT22;19501;50.948;5.316;2024-02-15T12:22:44;17.60;99.90
33139;DHT22;19501;50.948;5.316;2024-02-15T12:25:15;17.60;99.90
33139;DHT22;19501;50.948;5.316;2024-02-15T12:27:42;17.80;99.90
33139;DHT22;19501;50.948;5.316;2024-02-15T12:30:20;17.90;99.90
33139;DHT22;19501;50.948;5.316;2024-02-15T12:32:47;18.20;99.90
33139;DHT22;19501;50.948;5.316;2024-02-15T12:37:46;18.00;99.90
33139;DHT22;19501;50.948;5.316;2024-02-15T12:42:42;17.80;99.90
33139;DHT22;19501;50.948;5.316;2024-02-15T12:45:18;18.00;99.90
33139;DHT22;19501;50.948;5.316;2024-02-15T12:47:50;18.30;99.90
33139;DHT22;19501;50.948;5.316;2024-02-15T12:50:17;18.60;99.90
33139;DHT22;19501;50.948;5.316;2024-02-15T12:52:45;18.30;99.90
33139;DHT22;19501;50.948;5.316;2024-02-15T12:55:17;18.40;99.90
33139;DHT22;19501;50.948;5.316;2024-02-15T12:57:48;18.50;99.90
33139;DHT22;19501;50.948;5.316;2024-02-15T13:00:21;18.50;99.90
33139;DHT22;19501;50.948;5.316;2024-02-15T13:02:49;18.40;99.90
33139;DHT22;19501;50.948;5.316;2024-02-15T13:05:18;18.40;99.90
33139;DHT22;19501;50.948;5.316;2024-02-15T13:07:48;18.50;99.90
33139;DHT22;19501;50.948;5.316;2024-02-15T13:10:14;18.40;99.90
33139;DHT22;19501;50.948;5.316;2024-02-15T13:12:44;18.20;99.90
33139;DHT22;19501;50.948;5.316;2024-02-15T13:15:12;17.90;99.90
33139;DHT22;19501;50.948;5.316;2024-02-15T13:17:44;17.70;99.90
33139;DHT22;19501;50.948;5.316;2024-02-15T13:20:11;17.70;99.90
33139;DHT22;19501;50.948;5.316;2024-02-15T13:22:39;17.70;99.90
33139;DHT22;19501;50.948;5.316;2024-02-15T13:25:08;17.60;99.90
33139;DHT22;19501;50.948;5.316;2024-02-15T13:27:37;17.60;99.90
33139;DHT22;19501;50.948;5.316;2024-02-15T13:30:05;17.40;99.90
33139;DHT22;19501;50.948;5.316;2024-02-15T13:32:35;17.40;99.90
33139;DHT22;19501;50.948;5.316;2024-02-15T13:35:09;17.30;99.90
33139;DHT22;19501;50.948;5.316;2024-02-15T13:37:42;17.40;99.90
33139;DHT22;19501;50.948;5.316;2024-02-15T13:40:11;17.30;99.90
33139;DHT22;19501;50.948;5.316;2024-02-15T13:42:47;17.40;99.90
33139;DHT22;19501;50.948;5.316;2024-02-15T13:45:23;17.60;99.90
33139;DHT22;19501;50.948;5.316;2024-02-15T13:47:52;18.00;99.90
33139;DHT22;19501;50.948;5.316;2024-02-15T13:50:19;18.50;99.90
33139;DHT22;19501;50.948;5.316;2024-02-15T13:52:46;18.60;99.90
33139;DHT22;19501;50.948;5.316;2024-02-15T13:55:13;18.80;99.90
33139;DHT22;19501;50.948;5.316;2024-02-15T13:57:40;18.50;99.90
33139;DHT22;19501;50.948;5.316;2024-02-15T14:00:08;18.60;99.90
33139;DHT22;19501;50.948;5.316;2024-02-15T14:02:39;18.40;99.90
33139;DHT22;19501;50.948;5.316;2024-02-15T14:05:05;18.00;99.90
33139;DHT22;19501;50.948;5.316;2024-02-15T14:07:34;18.00;99.90
33139;DHT22;19501;50.948;5.316;2024-02-15T14:10:02;18.20;99.90
33139;DHT22;19501;50.948;5.316;2024-02-15T14:12:28;18.60;99.90
33139;DHT22;19501;50.948;5.316;2024-02-15T14:14:54;19.20;99.90
33139;DHT22;19501;50.948;5.316;2024-02-15T14:17:19;19.30;99.90
33139;DHT22;19501;50.948;5.316;2024-02-15T14:19:45;19.10;99.90
33139;DHT22;19501;50.948;5.316;2024-02-15T14:22:12;19.00;99.90
33139;DHT22;19501;50.948;5.316;2024-02-15T14:24:42;19.00;99.90
33139;DHT22;19501;50.948;5.316;2024-02-15T14:27:09;19.10;99.90
33139;DHT22;19501;50.948;5.316;2024-02-15T14:29:35;19.60;99.90
33139;DHT22;19501;50.948;5.316;2024-02-15T14:32:03;19.60;99.90
33139;DHT22;19501;50.948;5.316;2024-02-15T14:34:48;20.00;99.90
33139;DHT22;19501;50.948;5.316;2024-02-15T14:37:15;20.00;99.90
33139;DHT22;19501;50.948;5.316;2024-02-15T14:39:42;20.00;99.90
33139;DHT22;19501;50.948;5.316;2024-02-15T14:42:08;20.40;99.90
33139;DHT22;19501;50.948;5.316;2024-02-15T14:44:34;20.40;99.90
33139;DHT22;19501;50.948;5.316;2024-02-15T14:47:00;20.30;99.90
33139;DHT22;19501;50.948;5.316;2024-02-15T14:49:25;19.50;99.90
33139;DHT22;19501;50.948;5.316;2024-02-15T14:51:51;19.60;99.90
33139;DHT22;19501;50.948;5.316;2024-02-15T14:54:17;19.50;99.90
33139;DHT22;19501;50.948;5.316;2024-02-15T14:56:44;19.60;99.90
33139;DHT22;19501;50.948;5.316;2024-02-15T14:59:11;19.70;99.90
33139;DHT22;19501;50.948;5.316;2024-02-15T15:01:37;20.10;99.90
33139;DHT22;19501;50.948;5.316;2024-02-15T15:04:02;20.00;99.90
33139;DHT22;19501;50.948;5.316;2024-02-15T15:06:31;19.90;99.90
33139;DHT22;19501;50.948;5.316;2024-02-15T15:09:15;19.80;99.90
33139;DHT22;19501;50.948;5.316;2024-02-15T15:11:59;19.80;99.90
33139;DHT22;19501;50.948;5.316;2024-02-15T15:14:43;19.50;99.90
33139;DHT22;19501;50.948;5.316;2024-02-15T15:17:13;19.20;99.90
33139;DHT22;19501;50.948;5.316;2024-02-15T15:19:39;19.50;99.90
33139;DHT22;19501;50.948;5.316;2024-02-15T15:22:05;19.60;99.90
33139;DHT22;19501;50.948;5.316;2024-02-15T15:24:31;19.70;99.90
33139;DHT22;19501;50.948;5.316;2024-02-15T15:26:58;19.60;99.90
33139;DHT22;19501;50.948;5.316;2024-02-15T15:29:25;19.60;99.90
33139;DHT22;19501;50.948;5.316;2024-02-15T15:31:50;19.90;99.90
33139;DHT22;19501;50.948;5.316;2024-02-15T15:34:17;20.20;99.90
33139;DHT22;19501;50.948;5.316;2024-02-15T15:36:45;20.40;99.90
33139;DHT22;19501;50.948;5.316;2024-02-15T15:39:12;20.10;99.90
33139;DHT22;19501;50.948;5.316;2024-02-15T15:41:38;19.80;99.90
33139;DHT22;19501;50.948;5.316;2024-02-15T15:44:04;19.60;99.90
33139;DHT22;19501;50.948;5.316;2024-02-15T15:46:30;19.40;99.90
33139;DHT22;19501;50.948;5.316;2024-02-15T15:48:59;19.30;99.90
33139;DHT22;19501;50.948;5.316;2024-02-15T15:51:25;18.90;99.90
33139;DHT22;19501;50.948;5.316;2024-02-15T15:53:52;18.60;99.90
33139;DHT22;19501;50.948;5.316;2024-02-15T15:56:20;18.30;99.90
33139;DHT22;19501;50.948;5.316;2024-02-15T15:58:46;18.10;99.90
33139;DHT22;19501;50.948;5.316;2024-02-15T16:01:13;17.90;99.90